createdAt,value
2023-03-25T00:00:33.901Z,44.16
2023-03-25T00:01:38.399Z,44.14
2023-03-25T00:02:41.245Z,44.19
2023-03-25T00:03:44.397Z,44.10
2023-03-25T00:04:53.452Z,44.17
2023-03-25T00:05:56.565Z,44.17
2023-03-25T00:06:58.690Z,44.14
2023-03-25T00:08:05.389Z,44.15
2023-03-25T00:09:07.753Z,44.23
2023-03-25T00:10:13.625Z,44.28
2023-03-25T00:11:20.413Z,44.35
2023-03-25T00:12:22.674Z,44.34
2023-03-25T00:13:27.554Z,44.33
2023-03-25T00:14:29.653Z,44.33
2023-03-25T00:15:34.170Z,44.44
2023-03-25T00:16:41.324Z,44.48
2023-03-25T00:17:43.332Z,44.40
2023-03-25T00:18:46.631Z,44.36
2023-03-25T00:19:49.293Z,44.36
2023-03-25T00:20:52.931Z,44.42
2023-03-25T00:21:55.112Z,44.40
2023-03-25T00:23:03.496Z,44.33
2023-03-25T00:24:06.243Z,44.29
2023-03-25T00:25:13.357Z,44.13
2023-03-25T00:26:17.007Z,44.08
2023-03-25T00:27:21.076Z,44.07
2023-03-25T00:28:23.254Z,44.08
2023-03-25T00:29:25.348Z,44.13
2023-03-25T00:30:32.746Z,44.15
2023-03-25T00:31:34.936Z,44.18
2023-03-25T00:32:38.858Z,44.14
2023-03-25T00:33:42.328Z,44.25
2023-03-25T00:34:50.478Z,44.26
2023-03-25T00:35:53.004Z,44.25
2023-03-25T00:37:00.329Z,44.31
2023-03-25T00:38:02.532Z,44.27
2023-03-25T00:39:05.181Z,44.24
2023-03-25T00:40:11.186Z,44.26
2023-03-25T00:41:18.296Z,44.23
2023-03-25T00:42:20.384Z,44.30
2023-03-25T00:43:25.144Z,44.45
2023-03-25T00:44:30.350Z,44.39
2023-03-25T00:45:39.520Z,44.38
2023-03-25T00:46:43.695Z,44.40
2023-03-25T00:47:47.934Z,44.36
2023-03-25T00:48:50.812Z,44.35
2023-03-25T00:49:52.872Z,44.31
2023-03-25T00:50:56.465Z,44.35
2023-03-25T00:52:01.535Z,44.30
2023-03-25T00:53:07.328Z,44.29
2023-03-25T00:54:09.444Z,44.30
2023-03-25T00:55:11.639Z,44.25
2023-03-25T00:56:14.447Z,44.22
2023-03-25T00:57:16.786Z,44.21
2023-03-25T00:58:18.719Z,44.23
2023-03-25T00:59:21.342Z,44.25
2023-03-25T01:00:23.990Z,44.19
2023-03-25T01:01:26.806Z,44.18
2023-03-25T01:02:28.988Z,44.31
2023-03-25T01:03:30.932Z,44.40
2023-03-25T01:04:34.575Z,44.77
2023-03-25T01:05:37.061Z,44.70
2023-03-25T01:06:40.585Z,44.85
2023-03-25T01:07:42.638Z,44.88
2023-03-25T01:08:44.533Z,44.83
2023-03-25T01:09:47.072Z,45.12
2023-03-25T01:10:49.420Z,44.88
2023-03-25T01:11:51.368Z,44.85
2023-03-25T01:12:54.486Z,44.92
2023-03-25T01:13:57.449Z,44.89
2023-03-25T01:15:00.572Z,44.80
2023-03-25T01:16:06.503Z,44.74
2023-03-25T01:17:08.666Z,44.78
2023-03-25T01:18:10.574Z,44.60
2023-03-25T01:19:12.650Z,44.57
2023-03-25T01:20:15.577Z,44.58
2023-03-25T01:21:17.965Z,44.51
2023-03-25T01:22:20.022Z,44.47
2023-03-25T01:23:21.912Z,44.62
2023-03-25T01:24:23.709Z,44.44
2023-03-25T01:25:25.753Z,44.56
2023-03-25T01:26:27.870Z,44.32
2023-03-25T01:27:29.660Z,44.40
2023-03-25T01:28:31.567Z,44.20
2023-03-25T01:29:33.629Z,44.26
2023-03-25T01:30:35.761Z,44.27
2023-03-25T01:31:38.194Z,44.33
2023-03-25T01:32:40.084Z,44.36
2023-03-25T01:33:42.014Z,44.29
2023-03-25T01:34:44.720Z,44.19
2023-03-25T01:35:46.904Z,44.39
2023-03-25T01:36:49.079Z,44.08
2023-03-25T01:37:51.120Z,44.09
2023-03-25T01:38:53.186Z,44.17
2023-03-25T01:39:55.165Z,44.11
2023-03-25T01:40:57.456Z,44.13
2023-03-25T01:41:59.362Z,44.21
2023-03-25T01:43:01.368Z,44.17
2023-03-25T01:44:12.009Z,44.25
2023-03-25T01:45:23.350Z,44.43
2023-03-25T01:46:26.719Z,44.16
2023-03-25T01:47:28.790Z,44.11
2023-03-25T01:49:51.272Z,43.98
2023-03-25T01:51:04.368Z,43.97
2023-03-25T01:52:12.231Z,43.87
2023-03-25T01:53:16.647Z,43.75
2023-03-25T01:54:19.114Z,43.67
2023-03-25T01:55:21.062Z,43.58
2023-03-25T01:57:35.702Z,43.42
2023-03-25T01:58:37.763Z,43.38
2023-03-25T01:59:39.719Z,43.29
2023-03-25T02:00:42.478Z,43.17
2023-03-25T02:01:47.572Z,43.14
2023-03-25T02:02:49.777Z,43.14
2023-03-25T02:03:52.377Z,43.21
2023-03-25T02:06:16.741Z,43.08
2023-03-25T02:07:18.878Z,43.04
2023-03-25T02:08:21.978Z,42.96
2023-03-25T02:09:24.212Z,43.00
2023-03-25T02:10:26.283Z,42.83
2023-03-25T02:11:28.330Z,42.83
2023-03-25T02:12:30.423Z,42.91
2023-03-25T02:13:32.365Z,42.91
2023-03-25T02:14:34.649Z,42.81
2023-03-25T02:16:00.131Z,42.90
2023-03-25T02:18:45.184Z,42.81
2023-03-25T02:20:17.373Z,42.90
2023-03-25T02:22:54.330Z,42.94
2023-03-25T02:25:27.658Z,42.83
2023-03-25T02:26:42.928Z,42.86
2023-03-25T02:28:10.084Z,42.77
2023-03-25T02:29:15.946Z,42.75
2023-03-25T02:30:40.340Z,42.69
2023-03-25T02:31:52.624Z,42.71
2023-03-25T02:33:17.209Z,42.68
2023-03-25T02:34:35.017Z,42.84
2023-03-25T02:35:46.993Z,42.70
2023-03-25T02:37:16.784Z,42.78
2023-03-25T02:38:41.106Z,42.75
2023-03-25T02:39:56.274Z,42.87
2023-03-25T02:41:05.184Z,42.72
2023-03-25T02:43:54.678Z,42.76
2023-03-25T02:44:59.477Z,42.85
2023-03-25T02:46:05.418Z,42.77
2023-03-25T02:47:09.789Z,42.77
2023-03-25T02:49:42.400Z,42.71
2023-03-25T02:52:01.365Z,42.64
2023-03-25T02:53:05.168Z,42.54
2023-03-25T02:54:10.006Z,42.54
2023-03-25T02:55:13.309Z,42.49
2023-03-25T02:56:16.858Z,42.47
2023-03-25T02:58:30.176Z,42.39
2023-03-25T02:59:32.446Z,42.44
2023-03-25T03:00:35.574Z,42.39
2023-03-25T03:01:37.553Z,42.35
2023-03-25T03:02:39.794Z,42.31
2023-03-25T03:03:42.058Z,42.35
2023-03-25T03:06:15.916Z,42.33
2023-03-25T03:08:49.885Z,42.24
2023-03-25T03:10:01.815Z,42.22
2023-03-25T03:11:13.511Z,42.12
2023-03-25T03:12:19.270Z,42.08
2023-03-25T03:13:54.469Z,42.05
2023-03-25T03:15:18.238Z,42.00
2023-03-25T03:16:27.331Z,42.12
2023-03-25T03:17:35.896Z,42.05
2023-03-25T03:20:19.908Z,41.96
2023-03-25T03:22:40.987Z,42.01
2023-03-25T03:24:17.137Z,42.12
2023-03-25T03:25:28.942Z,42.16
2023-03-25T03:26:43.841Z,42.09
2023-03-25T03:27:49.166Z,42.24
2023-03-25T03:29:07.137Z,42.43
2023-03-25T03:30:13.105Z,42.50
2023-03-25T03:31:50.810Z,42.51
2023-03-25T03:32:43.289Z,42.71
2023-03-25T03:33:51.914Z,42.65
2023-03-25T03:35:00.234Z,42.51
2023-03-25T03:36:06.006Z,42.75
2023-03-25T03:37:08.197Z,42.39
2023-03-25T03:38:11.685Z,42.62
2023-03-25T03:40:29.887Z,42.80
2023-03-25T03:41:32.841Z,42.82
2023-03-25T03:42:40.921Z,42.82
2023-03-25T03:45:02.051Z,42.67
2023-03-25T03:49:44.674Z,42.51
2023-03-25T03:52:20.243Z,42.41
2023-03-25T03:53:29.870Z,42.40
2023-03-25T03:54:34.648Z,42.45
2023-03-25T03:55:40.648Z,42.67
2023-03-25T03:58:04.100Z,43.66
2023-03-25T03:59:23.265Z,46.13
2023-03-25T04:00:31.726Z,46.53
2023-03-25T04:01:40.143Z,47.33
2023-03-25T04:02:50.662Z,47.72
2023-03-25T04:03:56.573Z,48.39
2023-03-25T04:04:58.674Z,48.14
2023-03-25T04:06:03.957Z,48.00
2023-03-25T04:07:17.328Z,47.32
2023-03-25T04:08:31.448Z,46.75
2023-03-25T04:11:00.405Z,45.88
2023-03-25T04:12:14.214Z,45.93
2023-03-25T04:13:16.241Z,46.46
2023-03-25T04:14:18.220Z,46.42
2023-03-25T04:15:20.381Z,46.51
2023-03-25T04:16:22.402Z,46.83
2023-03-25T04:17:24.481Z,45.43
2023-03-25T04:18:26.557Z,44.95
2023-03-25T04:19:28.567Z,44.50
2023-03-25T04:20:32.193Z,43.94
2023-03-25T04:21:34.577Z,43.73
2023-03-25T04:22:36.728Z,43.56
2023-03-25T04:23:38.716Z,43.43
2023-03-25T04:24:40.724Z,43.24
2023-03-25T04:25:43.743Z,43.26
2023-03-25T04:26:46.025Z,43.29
2023-03-25T04:27:48.105Z,43.52
2023-03-25T04:28:50.071Z,43.50
2023-03-25T04:29:52.570Z,43.52
2023-03-25T04:30:54.913Z,43.56
2023-03-25T04:31:57.929Z,43.68
2023-03-25T04:33:00.109Z,43.66
2023-03-25T04:34:02.595Z,43.73
2023-03-25T04:35:05.242Z,43.89
2023-03-25T04:36:09.168Z,43.93
2023-03-25T04:37:11.246Z,43.86
2023-03-25T04:38:13.185Z,43.93
2023-03-25T04:39:15.635Z,44.00
2023-03-25T04:40:18.071Z,44.03
2023-03-25T04:41:20.045Z,44.16
2023-03-25T04:42:22.333Z,44.03
2023-03-25T04:43:24.677Z,43.97
2023-03-25T04:44:28.724Z,43.90
2023-03-25T04:45:31.013Z,43.85
2023-03-25T04:46:33.492Z,43.81
2023-03-25T04:48:37.811Z,43.74
2023-03-25T04:49:40.152Z,43.68
2023-03-25T04:50:42.136Z,43.72
2023-03-25T04:51:44.682Z,43.70
2023-03-25T04:52:47.275Z,43.54
2023-03-25T04:53:49.222Z,43.49
2023-03-25T04:54:51.780Z,43.56
2023-03-25T04:55:55.211Z,43.47
2023-03-25T04:56:57.622Z,43.47
2023-03-25T04:57:59.638Z,43.32
2023-03-25T04:59:01.670Z,43.36
2023-03-25T05:00:05.270Z,43.34
2023-03-25T05:01:07.723Z,43.30
2023-03-25T05:02:09.855Z,43.18
2023-03-25T05:03:12.317Z,43.14
2023-03-25T05:04:15.421Z,43.22
2023-03-25T05:05:19.384Z,43.23
2023-03-25T05:06:21.394Z,43.20
2023-03-25T05:07:23.341Z,43.23
2023-03-25T05:08:25.294Z,43.25
2023-03-25T05:09:27.742Z,43.22
2023-03-25T05:10:29.915Z,43.28
2023-03-25T05:11:33.470Z,43.26
2023-03-25T05:12:35.979Z,43.21
2023-03-25T05:13:38.823Z,43.20
2023-03-25T05:14:42.799Z,43.18
2023-03-25T05:15:45.671Z,43.21
2023-03-25T05:16:47.916Z,43.23
2023-03-25T05:17:50.056Z,43.30
2023-03-25T05:18:52.192Z,43.24
2023-03-25T05:19:54.593Z,43.16
2023-03-25T05:20:57.387Z,43.01
2023-03-25T05:21:59.625Z,42.98
2023-03-25T05:23:01.597Z,42.84
2023-03-25T05:24:04.904Z,42.89
2023-03-25T05:25:07.999Z,42.94
2023-03-25T05:26:10.899Z,42.88
2023-03-25T05:27:12.888Z,42.97
2023-03-25T05:28:15.145Z,42.92
2023-03-25T05:29:17.711Z,42.95
2023-03-25T05:30:20.305Z,42.93
2023-03-25T05:31:22.296Z,42.81
2023-03-25T05:32:25.085Z,42.81
2023-03-25T05:33:27.303Z,42.79
2023-03-25T05:34:29.267Z,42.73
2023-03-25T05:35:31.359Z,42.77
2023-03-25T05:36:34.377Z,42.83
2023-03-25T05:37:36.331Z,42.82
2023-03-25T05:38:41.138Z,42.80
2023-03-25T05:39:45.243Z,42.72
2023-03-25T05:40:47.819Z,42.67
2023-03-25T05:41:49.813Z,42.65
2023-03-25T05:42:57.888Z,42.75
2023-03-25T05:44:00.048Z,42.86
2023-03-25T05:45:03.296Z,42.95
2023-03-25T05:46:06.192Z,43.07
2023-03-25T05:47:08.355Z,43.13
2023-03-25T05:48:10.773Z,43.11
2023-03-25T05:49:13.119Z,43.14
2023-03-25T05:50:15.739Z,43.10
2023-03-25T05:51:18.238Z,43.11
2023-03-25T05:52:20.318Z,43.15
2023-03-25T05:53:22.230Z,43.41
2023-03-25T05:54:24.913Z,43.43
2023-03-25T05:55:27.398Z,43.45
2023-03-25T05:56:29.734Z,43.48
2023-03-25T05:57:32.083Z,43.60
2023-03-25T05:58:34.520Z,43.59
2023-03-25T05:59:36.553Z,43.68
2023-03-25T06:00:39.277Z,43.80
2023-03-25T06:01:41.354Z,43.87
2023-03-25T06:02:44.338Z,43.96
2023-03-25T06:03:46.699Z,44.01
2023-03-25T06:04:49.271Z,44.14
2023-03-25T06:05:51.363Z,44.18
2023-03-25T06:06:53.578Z,44.26
2023-03-25T06:07:56.508Z,44.40
2023-03-25T06:08:59.132Z,44.48
2023-03-25T06:10:01.315Z,44.54
2023-03-25T06:11:03.635Z,44.57
2023-03-25T06:12:06.155Z,44.63
2023-03-25T06:13:08.225Z,44.70
2023-03-25T06:14:10.206Z,44.73
2023-03-25T06:15:14.017Z,44.81
2023-03-25T06:16:21.334Z,44.75
2023-03-25T06:17:24.200Z,44.81
2023-03-25T06:18:26.376Z,44.88
2023-03-25T06:19:28.335Z,44.99
2023-03-25T06:20:30.901Z,45.00
2023-03-25T06:21:33.698Z,45.02
2023-03-25T06:22:43.581Z,45.01
2023-03-25T06:23:46.275Z,45.14
2023-03-25T06:24:48.406Z,45.08
2023-03-25T06:25:50.742Z,45.14
2023-03-25T06:26:53.652Z,45.20
2023-03-25T06:27:55.765Z,45.07
2023-03-25T06:28:58.733Z,46.12
2023-03-25T06:30:02.280Z,48.20
2023-03-25T06:31:17.383Z,47.70
2023-03-25T06:32:19.995Z,46.88
2023-03-25T06:33:42.375Z,46.27
2023-03-25T06:34:27.413Z,45.94
2023-03-25T06:35:29.500Z,45.82
2023-03-25T06:36:39.152Z,45.58
2023-03-25T06:37:42.011Z,45.50
2023-03-25T06:38:47.157Z,45.38
2023-03-25T06:39:50.875Z,45.38
2023-03-25T06:41:02.524Z,45.33
2023-03-25T06:42:05.208Z,45.18
2023-03-25T06:44:28.105Z,45.05
2023-03-25T06:45:52.473Z,45.05
2023-03-25T06:46:57.372Z,45.15
2023-03-25T06:48:03.565Z,45.04
2023-03-25T06:49:08.779Z,44.98
2023-03-25T06:50:12.252Z,44.98
2023-03-25T06:51:15.476Z,44.95
2023-03-25T06:52:17.681Z,44.94
2023-03-25T06:53:20.632Z,44.88
2023-03-25T06:54:23.675Z,44.83
2023-03-25T06:55:26.785Z,44.80
2023-03-25T06:56:28.986Z,44.77
2023-03-25T06:57:31.532Z,44.75
2023-03-25T06:58:36.042Z,44.67
2023-03-25T06:59:38.577Z,44.66
2023-03-25T07:00:42.715Z,44.63
2023-03-25T07:01:45.157Z,44.64
2023-03-25T07:02:47.866Z,44.58
2023-03-25T07:03:50.052Z,44.49
2023-03-25T07:04:55.792Z,44.49
2023-03-25T07:05:58.472Z,44.47
2023-03-25T07:07:00.872Z,44.33
2023-03-25T07:08:04.224Z,44.24
2023-03-25T07:09:06.511Z,44.28
2023-03-25T07:10:16.916Z,44.30
2023-03-25T07:11:23.985Z,44.28
2023-03-25T07:12:26.205Z,44.19
2023-03-25T07:13:29.084Z,44.16
2023-03-25T07:14:38.104Z,44.11
2023-03-25T07:15:43.993Z,44.09
2023-03-25T07:16:54.319Z,44.11
2023-03-25T07:17:59.174Z,44.11
2023-03-25T07:19:01.456Z,43.97
2023-03-25T07:20:05.825Z,44.18
2023-03-25T07:21:08.850Z,44.16
2023-03-25T07:22:14.689Z,44.19
2023-03-25T07:23:21.098Z,44.24
2023-03-25T07:24:24.275Z,44.30
2023-03-25T07:25:26.552Z,44.37
2023-03-25T07:26:30.789Z,44.43
2023-03-25T07:27:33.222Z,44.42
2023-03-25T07:28:40.841Z,44.44
2023-03-25T07:29:48.151Z,44.58
2023-03-25T07:30:50.604Z,44.57
2023-03-25T07:31:59.887Z,44.66
2023-03-25T07:33:02.476Z,44.64
2023-03-25T07:34:09.171Z,44.56
2023-03-25T07:35:11.658Z,44.56
2023-03-25T07:36:17.816Z,44.55
2023-03-25T07:37:20.092Z,44.61
2023-03-25T07:38:22.618Z,44.69
2023-03-25T07:39:25.582Z,44.83
2023-03-25T07:41:48.928Z,44.89
2023-03-25T07:42:59.542Z,45.06
2023-03-25T07:44:12.625Z,44.90
2023-03-25T07:45:15.366Z,44.77
2023-03-25T07:46:18.422Z,44.71
2023-03-25T07:47:20.746Z,44.75
2023-03-25T07:48:23.005Z,44.87
2023-03-25T07:49:25.781Z,44.88
2023-03-25T07:50:28.243Z,44.96
2023-03-25T07:51:30.523Z,45.08
2023-03-25T07:52:32.821Z,45.01
2023-03-25T07:53:36.171Z,44.98
2023-03-25T07:54:38.664Z,44.98
2023-03-25T07:55:42.307Z,44.88
2023-03-25T07:56:44.655Z,44.99
2023-03-25T07:57:47.505Z,44.94
2023-03-25T07:58:49.899Z,44.65
2023-03-25T07:59:52.754Z,44.35
2023-03-25T08:00:56.835Z,44.12
2023-03-25T08:02:11.036Z,43.80
2023-03-25T08:03:13.609Z,43.56
2023-03-25T08:05:34.668Z,43.34
2023-03-25T08:06:42.612Z,43.26
2023-03-25T08:07:44.801Z,43.38
2023-03-25T08:08:47.293Z,43.17
2023-03-25T08:09:52.893Z,43.10
2023-03-25T08:11:02.028Z,43.09
2023-03-25T08:12:08.483Z,43.17
2023-03-25T08:13:16.797Z,42.86
2023-03-25T08:14:19.157Z,42.92
2023-03-25T08:15:21.889Z,42.86
2023-03-25T08:16:26.398Z,42.88
2023-03-25T08:17:31.171Z,42.99
2023-03-25T08:18:33.474Z,42.87
2023-03-25T08:19:35.755Z,42.86
2023-03-25T08:20:38.501Z,42.87
2023-03-25T08:21:44.677Z,42.92
2023-03-25T08:23:01.755Z,43.04
2023-03-25T08:24:04.864Z,43.19
2023-03-25T08:25:09.163Z,43.17
2023-03-25T08:26:12.952Z,43.19
2023-03-25T08:27:16.677Z,43.06
2023-03-25T08:28:20.522Z,43.02
2023-03-25T08:29:24.286Z,42.99
2023-03-25T08:30:28.130Z,42.93
2023-03-25T08:31:31.354Z,42.86
2023-03-25T08:32:34.601Z,42.90
2023-03-25T08:34:57.990Z,43.06
2023-03-25T08:36:02.011Z,42.97
2023-03-25T08:37:04.860Z,43.12
2023-03-25T08:38:09.100Z,44.93
2023-03-25T08:39:11.732Z,44.20
2023-03-25T08:40:14.850Z,45.36
2023-03-25T08:41:17.551Z,45.16
2023-03-25T08:42:20.916Z,44.40
2023-03-25T08:43:23.134Z,43.99
2023-03-25T08:44:25.436Z,43.67
2023-03-25T08:45:27.626Z,43.47
2023-03-25T08:46:30.285Z,43.34
2023-03-25T08:47:33.591Z,43.22
2023-03-25T08:48:35.960Z,43.15
2023-03-25T08:49:37.987Z,43.13
2023-03-25T08:50:41.341Z,43.12
2023-03-25T08:51:43.505Z,43.11
2023-03-25T08:52:45.612Z,42.94
2023-03-25T08:53:47.845Z,42.85
2023-03-25T08:54:49.873Z,42.77
2023-03-25T08:55:54.042Z,42.91
2023-03-25T08:56:56.400Z,42.92
2023-03-25T08:58:03.417Z,43.00
2023-03-25T08:59:05.571Z,43.12
2023-03-25T09:00:10.112Z,43.16
2023-03-25T09:01:12.500Z,43.22
2023-03-25T09:02:15.286Z,43.12
2023-03-25T09:03:17.382Z,43.08
2023-03-25T09:04:19.466Z,43.00
2023-03-25T09:05:22.089Z,43.05
2023-03-25T09:06:24.421Z,43.03
2023-03-25T09:07:26.951Z,43.05
2023-03-25T09:08:29.083Z,43.00
2023-03-25T09:09:31.454Z,42.99
2023-03-25T09:10:34.746Z,43.00
2023-03-25T09:11:37.894Z,42.97
2023-03-25T09:12:40.173Z,42.98
2023-03-25T09:13:42.377Z,43.02
2023-03-25T09:14:44.400Z,43.09
2023-03-25T09:15:47.071Z,43.08
2023-03-25T09:16:49.498Z,43.20
2023-03-25T09:17:51.879Z,43.30
2023-03-25T09:18:53.972Z,43.31
2023-03-25T09:19:57.705Z,43.28
2023-03-25T09:21:00.353Z,43.17
2023-03-25T09:22:02.591Z,43.08
2023-03-25T09:23:05.308Z,43.04
2023-03-25T09:24:08.216Z,43.01
2023-03-25T09:25:10.299Z,43.04
2023-03-25T09:26:12.871Z,43.06
2023-03-25T09:27:14.864Z,43.03
2023-03-25T09:28:17.160Z,43.05
2023-03-25T09:29:19.264Z,42.84
2023-03-25T09:30:21.465Z,43.13
2023-03-25T09:31:24.139Z,43.12
2023-03-25T09:32:26.281Z,43.00
2023-03-25T09:33:28.596Z,43.18
2023-03-25T09:34:30.597Z,43.17
2023-03-25T09:35:33.201Z,43.21
2023-03-25T09:36:38.355Z,43.21
2023-03-25T09:37:42.498Z,43.07
2023-03-25T09:38:45.225Z,43.04
2023-03-25T09:39:47.398Z,43.14
2023-03-25T09:40:55.735Z,43.14
2023-03-25T09:42:31.702Z,43.21
2023-03-25T09:43:41.741Z,43.18
2023-03-25T09:44:56.793Z,43.09
2023-03-25T09:45:59.088Z,42.90
2023-03-25T09:47:01.465Z,42.88
2023-03-25T09:49:41.478Z,42.59
2023-03-25T09:50:48.677Z,42.53
2023-03-25T09:52:59.015Z,42.37
2023-03-25T09:54:06.274Z,42.27
2023-03-25T09:55:10.884Z,42.31
2023-03-25T09:56:19.266Z,42.26
2023-03-25T09:57:25.166Z,42.33
2023-03-25T09:58:42.601Z,42.29
2023-03-25T09:59:49.695Z,42.27
2023-03-25T10:02:43.733Z,42.28
2023-03-25T10:03:59.473Z,42.23
2023-03-25T10:05:18.232Z,42.23
2023-03-25T10:06:21.012Z,42.25
2023-03-25T10:07:45.704Z,42.33
2023-03-25T10:08:57.421Z,42.44
2023-03-25T10:12:03.833Z,42.31
2023-03-25T10:13:38.387Z,42.37
2023-03-25T10:15:07.427Z,42.39
2023-03-25T10:16:22.342Z,42.41
2023-03-25T10:17:31.936Z,42.41
2023-03-25T10:18:43.044Z,42.47
2023-03-25T10:20:27.279Z,42.48
2023-03-25T10:21:30.101Z,42.37
2023-03-25T10:22:51.348Z,42.33
2023-03-25T10:24:04.137Z,42.31
2023-03-25T10:25:15.603Z,42.41
2023-03-25T10:26:45.295Z,42.36
2023-03-25T10:27:51.502Z,42.36
2023-03-25T10:29:01.855Z,42.25
2023-03-25T10:30:11.123Z,42.30
2023-03-25T10:31:18.066Z,42.27
2023-03-25T10:32:33.640Z,42.22
2023-03-25T10:33:37.320Z,42.12
2023-03-25T10:34:51.861Z,42.10
2023-03-25T10:35:55.244Z,42.08
2023-03-25T10:39:11.949Z,42.10
2023-03-25T10:40:55.327Z,42.22
2023-03-25T10:42:02.655Z,42.26
2023-03-25T10:43:33.836Z,42.29
2023-03-25T10:44:36.123Z,42.39
2023-03-25T10:45:39.518Z,42.46
2023-03-25T10:46:54.828Z,42.51
2023-03-25T10:49:21.899Z,42.54
2023-03-25T10:50:27.801Z,42.57
2023-03-25T10:51:37.336Z,42.56
2023-03-25T10:52:40.808Z,42.39
2023-03-25T10:53:47.182Z,42.35
2023-03-25T10:54:54.848Z,42.33
2023-03-25T10:56:18.223Z,42.32
2023-03-25T10:58:36.847Z,43.07
2023-03-25T11:01:44.218Z,42.34
2023-03-25T11:03:31.514Z,42.00
2023-03-25T11:04:36.496Z,42.48
2023-03-25T11:05:39.101Z,42.57
2023-03-25T11:06:44.115Z,42.31
2023-03-25T11:07:52.628Z,42.16
2023-03-25T11:09:15.974Z,42.01
2023-03-25T11:10:22.966Z,42.06
2023-03-25T11:11:32.177Z,41.84
2023-03-25T11:12:42.926Z,41.92
2023-03-25T11:13:39.222Z,41.79
2023-03-25T11:14:41.232Z,41.71
2023-03-25T11:15:43.763Z,41.72
2023-03-25T11:16:48.899Z,41.68
2023-03-25T11:19:27.819Z,41.66
2023-03-25T11:20:39.614Z,41.26
2023-03-25T11:21:46.045Z,41.27
2023-03-25T11:22:50.566Z,41.20
2023-03-25T11:23:52.610Z,41.40
2023-03-25T11:25:00.203Z,41.24
2023-03-25T11:26:07.786Z,41.29
2023-03-25T11:27:09.895Z,41.42
2023-03-25T11:28:21.765Z,41.35
2023-03-25T11:29:25.700Z,41.18
2023-03-25T11:30:27.886Z,41.21
2023-03-25T11:31:44.602Z,41.23
2023-03-25T11:32:59.201Z,41.20
2023-03-25T11:34:08.750Z,41.13
2023-03-25T11:35:16.184Z,41.13
2023-03-25T11:36:22.325Z,41.24
2023-03-25T11:37:24.881Z,41.26
2023-03-25T11:38:27.742Z,41.26
2023-03-25T11:39:34.427Z,41.25
2023-03-25T11:40:37.873Z,41.18
2023-03-25T11:41:40.564Z,41.05
2023-03-25T11:43:53.689Z,41.21
2023-03-25T11:44:56.452Z,41.20
2023-03-25T11:46:14.104Z,41.23
2023-03-25T11:47:23.215Z,41.22
2023-03-25T11:48:29.615Z,41.21
2023-03-25T11:49:34.407Z,41.30
2023-03-25T11:50:36.775Z,41.41
2023-03-25T11:51:39.898Z,41.43
2023-03-25T11:52:45.467Z,41.49
2023-03-25T11:55:01.043Z,41.21
2023-03-25T11:56:06.117Z,40.96
2023-03-25T11:57:17.447Z,41.09
2023-03-25T11:58:21.553Z,41.20
2023-03-25T11:59:29.697Z,41.31
2023-03-25T12:00:39.957Z,41.29
2023-03-25T12:01:45.590Z,41.22
2023-03-25T12:02:48.158Z,41.19
2023-03-25T12:03:51.071Z,41.10
2023-03-25T12:06:20.285Z,41.08
2023-03-25T12:07:22.364Z,41.13
2023-03-25T12:08:24.355Z,41.17
2023-03-25T12:09:30.414Z,41.30
2023-03-25T12:10:54.796Z,41.12
2023-03-25T12:14:02.083Z,41.17
2023-03-25T12:16:39.597Z,41.50
2023-03-25T12:18:05.723Z,41.49
2023-03-25T12:19:26.585Z,41.54
2023-03-25T12:21:01.774Z,41.37
2023-03-25T12:22:07.579Z,41.42
2023-03-25T12:23:34.611Z,41.37
2023-03-25T12:25:00.188Z,41.62
2023-03-25T12:27:52.064Z,41.65
2023-03-25T12:30:44.449Z,41.52
2023-03-25T12:32:11.033Z,41.57
2023-03-25T12:33:37.247Z,41.57
2023-03-25T12:34:58.340Z,41.54
2023-03-25T12:36:38.821Z,41.40
2023-03-25T12:41:18.854Z,41.41
2023-03-25T12:42:27.967Z,41.70
2023-03-25T12:43:47.152Z,41.56
2023-03-25T12:45:08.834Z,41.64
2023-03-25T12:46:39.638Z,41.61
2023-03-25T12:47:42.888Z,41.43
2023-03-25T12:49:01.366Z,41.41
2023-03-25T12:50:37.439Z,41.36
2023-03-25T12:52:06.307Z,41.31
2023-03-25T12:53:32.816Z,41.34
2023-03-25T12:54:39.516Z,41.30
2023-03-25T12:57:06.862Z,41.18
2023-03-25T12:58:22.852Z,41.25
2023-03-25T12:59:48.427Z,41.31
2023-03-25T13:01:20.044Z,41.27
2023-03-25T13:02:35.148Z,41.34
2023-03-25T13:03:44.026Z,41.32
2023-03-25T13:04:59.071Z,41.34
2023-03-25T13:06:20.143Z,41.49
2023-03-25T13:08:55.774Z,41.51
2023-03-25T13:10:19.006Z,41.61
2023-03-25T13:11:39.748Z,41.56
2023-03-25T13:14:10.594Z,41.47
2023-03-25T13:15:26.353Z,41.56
2023-03-25T13:16:26.949Z,41.64
2023-03-25T13:17:41.160Z,41.67
2023-03-25T13:20:13.335Z,41.74
2023-03-25T13:21:24.128Z,41.91
2023-03-25T13:23:46.394Z,41.82
2023-03-25T13:24:50.801Z,41.90
2023-03-25T13:29:30.768Z,41.89
2023-03-25T13:30:36.861Z,41.84
2023-03-25T13:31:40.367Z,41.86
2023-03-25T13:32:44.966Z,41.97
2023-03-25T13:33:50.250Z,41.83
2023-03-25T13:35:01.359Z,41.85
2023-03-25T13:36:20.605Z,41.85
2023-03-25T13:37:31.488Z,41.75
2023-03-25T13:40:05.530Z,41.61
2023-03-25T13:42:36.681Z,41.69
2023-03-25T13:46:51.304Z,41.54
2023-03-25T13:48:13.795Z,41.54
2023-03-25T13:49:37.408Z,41.53
2023-03-25T13:50:39.999Z,41.50
2023-03-25T13:51:42.080Z,41.51
2023-03-25T13:52:47.755Z,41.45
2023-03-25T13:53:53.267Z,41.54
2023-03-25T13:55:01.188Z,41.48
2023-03-25T13:56:13.590Z,41.47
2023-03-25T13:59:05.327Z,41.41
2023-03-25T14:00:19.989Z,41.36
2023-03-25T14:01:52.424Z,41.35
2023-03-25T14:03:07.342Z,41.46
2023-03-25T14:06:09.032Z,41.21
2023-03-25T14:07:18.146Z,41.30
2023-03-25T14:10:03.792Z,41.40
2023-03-25T14:11:25.660Z,41.37
2023-03-25T14:13:55.086Z,41.17
2023-03-25T14:16:24.708Z,41.19
2023-03-25T14:17:27.698Z,41.24
2023-03-25T14:18:29.792Z,41.41
2023-03-25T14:19:34.890Z,41.37
2023-03-25T14:20:41.367Z,41.20
2023-03-25T14:22:58.537Z,41.03
2023-03-25T14:25:34.807Z,41.08
2023-03-25T14:26:44.241Z,41.13
2023-03-25T14:27:49.748Z,41.20
2023-03-25T14:28:52.235Z,40.88
2023-03-25T14:30:02.188Z,40.86
2023-03-25T14:31:23.282Z,40.77
2023-03-25T14:32:34.636Z,40.76
2023-03-25T14:34:00.342Z,40.64
2023-03-25T14:35:35.179Z,40.72
2023-03-25T14:36:50.426Z,40.67
2023-03-25T14:37:52.933Z,40.67
2023-03-25T14:38:56.094Z,40.71
2023-03-25T14:40:00.633Z,40.70
2023-03-25T14:41:04.105Z,40.71
2023-03-25T14:42:10.784Z,40.77
2023-03-25T14:43:37.479Z,40.83
2023-03-25T14:44:40.386Z,40.89
2023-03-25T14:46:00.338Z,40.88
2023-03-25T14:47:16.256Z,40.94
2023-03-25T14:48:33.085Z,40.94
2023-03-25T14:49:50.673Z,40.96
2023-03-25T14:51:28.831Z,40.86
2023-03-25T14:59:50.980Z,41.41
2023-03-25T15:01:06.195Z,41.37
2023-03-25T15:04:36.067Z,41.55
2023-03-25T15:05:38.022Z,41.48
2023-03-25T15:06:41.442Z,41.45
2023-03-25T15:07:53.761Z,41.44
2023-03-25T15:08:57.647Z,41.48
2023-03-25T15:09:59.638Z,41.38
2023-03-25T15:11:07.588Z,41.35
2023-03-25T15:12:12.914Z,41.38
2023-03-25T15:14:40.689Z,41.35
2023-03-25T15:15:49.926Z,41.41
2023-03-25T15:16:59.187Z,41.41
2023-03-25T15:18:01.254Z,41.39
2023-03-25T15:19:11.712Z,41.40
2023-03-25T15:20:26.623Z,41.42
2023-03-25T15:21:51.147Z,41.47
2023-03-25T15:24:58.190Z,41.39
2023-03-25T15:26:00.214Z,41.54
2023-03-25T15:28:38.636Z,41.81
2023-03-25T15:29:52.403Z,44.77
2023-03-25T15:31:02.128Z,46.06
2023-03-25T15:34:02.144Z,44.99
2023-03-25T15:35:20.542Z,45.96
2023-03-25T15:36:39.596Z,45.97
2023-03-25T15:38:08.449Z,45.77
2023-03-25T15:39:32.786Z,46.16
2023-03-25T15:41:12.940Z,46.00
2023-03-25T15:42:24.735Z,46.19
2023-03-25T15:44:00.249Z,45.21
2023-03-25T15:47:03.011Z,45.52
2023-03-25T15:48:28.897Z,45.73
2023-03-25T15:50:04.694Z,45.92
2023-03-25T15:51:27.272Z,46.23
2023-03-25T15:53:05.217Z,46.07
2023-03-25T15:54:26.941Z,46.20
2023-03-25T15:55:31.551Z,45.96
2023-03-25T15:56:37.492Z,46.30
2023-03-25T15:57:42.737Z,46.04
2023-03-25T16:00:27.660Z,45.74
2023-03-25T16:01:32.353Z,45.73
2023-03-25T16:02:40.960Z,46.02
2023-03-25T16:03:43.241Z,46.19
2023-03-25T16:04:47.587Z,46.51
2023-03-25T16:06:00.661Z,46.33
2023-03-25T16:07:03.966Z,46.49
2023-03-25T16:09:46.064Z,46.46
2023-03-25T16:10:48.792Z,46.50
2023-03-25T16:11:50.685Z,46.87
2023-03-25T16:12:54.994Z,46.39
2023-03-25T16:15:29.847Z,46.46
2023-03-25T16:16:32.510Z,45.96
2023-03-25T16:17:34.520Z,45.07